sensor_id;sensor_type;location;lat;lon;timestamp;pressure;altitude;pressure_sealevel;temperature;humidity
54850;BME280;47660;51.334;12.396;2023-05-21T00:00:08;100403.31;;;23.66;65.01
54850;BME280;47660;51.334;12.396;2023-05-21T00:02:36;100405.56;;;24.01;63.99
54850;BME280;47660;51.334;12.396;2023-05-21T00:05:02;100411.56;;;23.73;65.03
54850;BME280;47660;51.334;12.396;2023-05-21T00:07:27;100401.00;;;23.93;64.11
54850;BME280;47660;51.334;12.396;2023-05-21T00:09:53;100409.25;;;24.08;62.98
54850;BME280;47660;51.334;12.396;2023-05-21T00:12:18;100401.19;;;24.00;63.42
54850;BME280;47660;51.334;12.396;2023-05-21T00:14:43;100399.59;;;24.21;62.90
54850;BME280;47660;51.334;12.396;2023-05-21T00:17:11;100396.22;;;24.33;62.53
54850;BME280;47660;51.334;12.396;2023-05-21T00:19:37;100387.44;;;24.46;61.90
54850;BME280;47660;51.334;12.396;2023-05-21T00:22:04;100396.41;;;24.17;62.80
54850;BME280;47660;51.334;12.396;2023-05-21T00:24:32;100385.25;;;24.27;63.70
54850;BME280;47660;51.334;12.396;2023-05-21T00:26:58;100386.38;;;24.02;63.27
54850;BME280;47660;51.334;12.396;2023-05-21T00:29:23;100384.47;;;23.65;65.12
54850;BME280;47660;51.334;12.396;2023-05-21T00:31:50;100383.03;;;23.77;64.86
54850;BME280;47660;51.334;12.396;2023-05-21T00:34:16;100380.16;;;23.94;64.80
54850;BME280;47660;51.334;12.396;2023-05-21T00:36:44;100382.53;;;24.42;63.79
54850;BME280;47660;51.334;12.396;2023-05-21T00:39:10;100380.28;;;23.62;65.83
54850;BME280;47660;51.334;12.396;2023-05-21T00:41:35;100377.69;;;23.46;66.84
54850;BME280;47660;51.334;12.396;2023-05-21T00:44:02;100368.09;;;23.58;65.60
54850;BME280;47660;51.334;12.396;2023-05-21T00:46:30;100367.94;;;23.59;65.78
54850;BME280;47660;51.334;12.396;2023-05-21T00:48:55;100377.00;;;23.67;66.03
54850;BME280;47660;51.334;12.396;2023-05-21T00:51:25;100370.22;;;23.86;64.95
54850;BME280;47660;51.334;12.396;2023-05-21T00:53:55;100378.31;;;24.09;64.62
54850;BME280;47660;51.334;12.396;2023-05-21T00:56:22;100376.84;;;23.68;66.84
54850;BME280;47660;51.334;12.396;2023-05-21T00:58:48;100379.19;;;24.10;64.14
54850;BME280;47660;51.334;12.396;2023-05-21T01:01:16;100371.16;;;23.93;64.26
54850;BME280;47660;51.334;12.396;2023-05-21T01:03:42;100369.75;;;23.44;66.11
54850;BME280;47660;51.334;12.396;2023-05-21T01:06:10;100371.31;;;24.45;63.61
54850;BME280;47660;51.334;12.396;2023-05-21T01:08:39;100375.88;;;24.14;64.10
54850;BME280;47660;51.334;12.396;2023-05-21T01:11:07;100367.00;;;24.06;64.37
54850;BME280;47660;51.334;12.396;2023-05-21T01:13:36;100360.88;;;24.63;63.00
54850;BME280;47660;51.334;12.396;2023-05-21T01:16:03;100354.06;;;24.38;63.57
54850;BME280;47660;51.334;12.396;2023-05-21T01:18:33;100359.22;;;24.02;64.08
54850;BME280;47660;51.334;12.396;2023-05-21T01:21:00;100361.94;;;24.02;64.74
54850;BME280;47660;51.334;12.396;2023-05-21T01:23:28;100359.63;;;23.91;64.56
54850;BME280;47660;51.334;12.396;2023-05-21T01:25:54;100354.63;;;23.65;65.65
54850;BME280;47660;51.334;12.396;2023-05-21T01:28:22;100351.34;;;24.53;63.36
54850;BME280;47660;51.334;12.396;2023-05-21T01:30:48;100355.66;;;23.64;65.48
54850;BME280;47660;51.334;12.396;2023-05-21T01:33:28;100351.84;;;24.26;64.45
54850;BME280;47660;51.334;12.396;2023-05-21T01:38:42;100343.63;;;23.20;67.71
54850;BME280;47660;51.334;12.396;2023-05-21T01:41:12;100345.81;;;23.48;67.85
54850;BME280;47660;51.334;12.396;2023-05-21T01:43:40;100343.59;;;23.51;67.98
54850;BME280;47660;51.334;12.396;2023-05-21T01:46:12;100338.78;;;23.92;66.86
54850;BME280;47660;51.334;12.396;2023-05-21T01:48:42;100338.78;;;23.92;66.18
54850;BME280;47660;51.334;12.396;2023-05-21T01:51:08;100343.31;;;23.61;67.38
54850;BME280;47660;51.334;12.396;2023-05-21T01:53:34;100336.94;;;23.54;67.47
54850;BME280;47660;51.334;12.396;2023-05-21T01:55:59;100334.56;;;23.36;67.46
54850;BME280;47660;51.334;12.396;2023-05-21T01:58:29;100338.53;;;23.25;68.25
54850;BME280;47660;51.334;12.396;2023-05-21T02:00:54;100338.88;;;23.22;68.46
54850;BME280;47660;51.334;12.396;2023-05-21T02:03:23;100340.09;;;23.96;66.69
54850;BME280;47660;51.334;12.396;2023-05-21T02:05:49;100340.16;;;23.72;65.93
54850;BME280;47660;51.334;12.396;2023-05-21T02:08:16;100335.47;;;23.66;66.14
54850;BME280;47660;51.334;12.396;2023-05-21T02:10:43;100330.72;;;23.30;67.34
54850;BME280;47660;51.334;12.396;2023-05-21T02:13:09;100333.31;;;23.38;67.63
54850;BME280;47660;51.334;12.396;2023-05-21T02:15:35;100345.59;;;23.72;65.93
54850;BME280;47660;51.334;12.396;2023-05-21T02:18:00;100340.00;;;23.51;66.58
54850;BME280;47660;51.334;12.396;2023-05-21T02:20:26;100343.88;;;23.56;67.93
54850;BME280;47660;51.334;12.396;2023-05-21T02:22:54;100344.44;;;22.97;69.47
54850;BME280;47660;51.334;12.396;2023-05-21T02:25:19;100334.63;;;24.04;64.72
54850;BME280;47660;51.334;12.396;2023-05-21T02:27:47;100329.28;;;23.57;66.54
54850;BME280;47660;51.334;12.396;2023-05-21T02:30:17;100336.03;;;23.15;68.45
54850;BME280;47660;51.334;12.396;2023-05-21T02:32:47;100331.06;;;23.65;67.99
54850;BME280;47660;51.334;12.396;2023-05-21T02:35:16;100330.31;;;23.56;68.82
54850;BME280;47660;51.334;12.396;2023-05-21T02:37:42;100343.44;;;23.21;69.04
54850;BME280;47660;51.334;12.396;2023-05-21T02:40:11;100338.16;;;24.05;67.19
54850;BME280;47660;51.334;12.396;2023-05-21T02:42:39;100347.53;;;23.64;67.04
54850;BME280;47660;51.334;12.396;2023-05-21T02:45:09;100335.09;;;23.69;68.34
54850;BME280;47660;51.334;12.396;2023-05-21T02:47:36;100342.91;;;23.49;67.83
54850;BME280;47660;51.334;12.396;2023-05-21T02:50:04;100338.16;;;23.51;67.33
54850;BME280;47660;51.334;12.396;2023-05-21T02:52:30;100334.91;;;23.33;67.98
54850;BME280;47660;51.334;12.396;2023-05-21T02:54:57;100328.88;;;23.46;67.29
54850;BME280;47660;51.334;12.396;2023-05-21T02:57:23;100342.94;;;23.26;68.58
54850;BME280;47660;51.334;12.396;2023-05-21T02:59:48;100342.09;;;23.17;68.75
54850;BME280;47660;51.334;12.396;2023-05-21T03:02:13;100333.88;;;23.34;68.04
54850;BME280;47660;51.334;12.396;2023-05-21T03:04:39;100330.88;;;22.74;70.63
54850;BME280;47660;51.334;12.396;2023-05-21T03:07:11;100339.38;;;23.64;67.70
54850;BME280;47660;51.334;12.396;2023-05-21T03:09:38;100336.38;;;22.89;71.21
54850;BME280;47660;51.334;12.396;2023-05-21T03:12:05;100334.94;;;23.01;70.40
54850;BME280;47660;51.334;12.396;2023-05-21T03:14:32;100332.91;;;22.72;71.32
54850;BME280;47660;51.334;12.396;2023-05-21T03:16:59;100324.28;;;22.99;70.27
54850;BME280;47660;51.334;12.396;2023-05-21T03:19:27;100332.13;;;23.18;69.35
54850;BME280;47660;51.334;12.396;2023-05-21T03:21:54;100327.53;;;23.41;67.88
54850;BME280;47660;51.334;12.396;2023-05-21T03:24:20;100323.88;;;23.11;69.39
54850;BME280;47660;51.334;12.396;2023-05-21T03:26:46;100326.03;;;22.61;72.33
54850;BME280;47660;51.334;12.396;2023-05-21T03:29:12;100328.72;;;23.24;69.08
54850;BME280;47660;51.334;12.396;2023-05-21T03:31:37;100319.56;;;23.25;68.83
54850;BME280;47660;51.334;12.396;2023-05-21T03:34:03;100324.34;;;23.14;69.16
54850;BME280;47660;51.334;12.396;2023-05-21T03:36:30;100321.88;;;23.51;69.03
54850;BME280;47660;51.334;12.396;2023-05-21T03:38:56;100327.28;;;22.81;70.71
54850;BME280;47660;51.334;12.396;2023-05-21T03:41:21;100322.53;;;22.52;73.49
54850;BME280;47660;51.334;12.396;2023-05-21T03:43:47;100329.22;;;23.42;68.51
54850;BME280;47660;51.334;12.396;2023-05-21T03:46:12;100317.16;;;22.44;73.76
54850;BME280;47660;51.334;12.396;2023-05-21T03:48:40;100322.00;;;22.57;73.23
54850;BME280;47660;51.334;12.396;2023-05-21T03:51:06;100324.09;;;23.01;70.63
54850;BME280;47660;51.334;12.396;2023-05-21T03:53:32;100319.25;;;23.58;69.10
54850;BME280;47660;51.334;12.396;2023-05-21T03:55:58;100316.97;;;23.00;70.58
54850;BME280;47660;51.334;12.396;2023-05-21T03:58:23;100318.91;;;22.91;70.58
54850;BME280;47660;51.334;12.396;2023-05-21T04:00:49;100322.50;;;22.60;73.52
54850;BME280;47660;51.334;12.396;2023-05-21T04:03:17;100330.44;;;22.93;70.80
54850;BME280;47660;51.334;12.396;2023-05-21T04:05:43;100330.22;;;23.18;70.42
54850;BME280;47660;51.334;12.396;2023-05-21T04:08:09;100327.03;;;23.23;69.71
54850;BME280;47660;51.334;12.396;2023-05-21T04:10:34;100328.00;;;23.30;69.26
54850;BME280;47660;51.334;12.396;2023-05-21T04:13:00;100330.91;;;22.97;70.65
54850;BME280;47660;51.334;12.396;2023-05-21T04:15:25;100328.81;;;23.07;71.17
54850;BME280;47660;51.334;12.396;2023-05-21T04:17:52;100325.47;;;22.97;71.04
54850;BME280;47660;51.334;12.396;2023-05-21T04:20:19;100331.25;;;23.17;71.09
54850;BME280;47660;51.334;12.396;2023-05-21T04:22:44;100328.19;;;23.20;70.69
54850;BME280;47660;51.334;12.396;2023-05-21T04:25:10;100325.59;;;23.35;69.75
54850;BME280;47660;51.334;12.396;2023-05-21T04:27:35;100338.00;;;22.98;72.05
54850;BME280;47660;51.334;12.396;2023-05-21T04:30:04;100339.56;;;24.00;68.48
54850;BME280;47660;51.334;12.396;2023-05-21T04:32:30;100330.69;;;24.07;67.20
54850;BME280;47660;51.334;12.396;2023-05-21T04:34:57;100339.06;;;23.82;67.33
54850;BME280;47660;51.334;12.396;2023-05-21T04:37:25;100335.00;;;24.01;67.24
54850;BME280;47660;51.334;12.396;2023-05-21T04:39:53;100336.53;;;23.95;68.12
54850;BME280;47660;51.334;12.396;2023-05-21T04:42:20;100331.47;;;23.39;69.25
54850;BME280;47660;51.334;12.396;2023-05-21T04:44:48;100333.81;;;23.42;70.50
54850;BME280;47660;51.334;12.396;2023-05-21T04:47:15;100339.66;;;23.54;69.10
54850;BME280;47660;51.334;12.396;2023-05-21T04:49:40;100339.75;;;23.61;69.47
54850;BME280;47660;51.334;12.396;2023-05-21T04:52:06;100334.31;;;23.22;70.81
54850;BME280;47660;51.334;12.396;2023-05-21T04:54:34;100335.78;;;23.33;71.39
54850;BME280;47660;51.334;12.396;2023-05-21T04:57:00;100337.97;;;23.53;70.34
54850;BME280;47660;51.334;12.396;2023-05-21T04:59:27;100336.09;;;24.07;67.22
54850;BME280;47660;51.334;12.396;2023-05-21T05:01:52;100334.91;;;23.33;70.52
54850;BME280;47660;51.334;12.396;2023-05-21T05:04:20;100344.69;;;23.10;73.17
54850;BME280;47660;51.334;12.396;2023-05-21T05:06:45;100337.84;;;23.84;68.66
54850;BME280;47660;51.334;12.396;2023-05-21T05:09:11;100334.72;;;23.57;69.87
54850;BME280;47660;51.334;12.396;2023-05-21T05:11:36;100330.41;;;23.63;70.29
54850;BME280;47660;51.334;12.396;2023-05-21T05:14:05;100334.75;;;23.72;69.57
54850;BME280;47660;51.334;12.396;2023-05-21T05:16:31;100334.75;;;23.72;69.23
54850;BME280;47660;51.334;12.396;2023-05-21T05:18:58;100324.50;;;24.80;64.39
54850;BME280;47660;51.334;12.396;2023-05-21T05:21:28;100323.72;;;25.23;64.09
54850;BME280;47660;51.334;12.396;2023-05-21T05:23:57;100326.38;;;24.27;66.17
54850;BME280;47660;51.334;12.396;2023-05-21T05:26:23;100331.97;;;24.41;66.36
54850;BME280;47660;51.334;12.396;2023-05-21T05:28:48;100325.19;;;24.67;65.01
54850;BME280;47660;51.334;12.396;2023-05-21T05:31:14;100326.84;;;24.83;63.62
54850;BME280;47660;51.334;12.396;2023-05-21T05:33:42;100322.56;;;24.73;63.35
54850;BME280;47660;51.334;12.396;2023-05-21T05:36:07;100315.75;;;24.47;65.52
54850;BME280;47660;51.334;12.396;2023-05-21T05:38:33;100307.84;;;25.76;60.61
54850;BME280;47660;51.334;12.396;2023-05-21T05:40:59;100315.13;;;24.67;63.64
54850;BME280;47660;51.334;12.396;2023-05-21T05:43:25;100314.63;;;24.72;64.71
54850;BME280;47660;51.334;12.396;2023-05-21T05:45:51;100309.97;;;25.09;62.99
54850;BME280;47660;51.334;12.396;2023-05-21T05:48:16;100314.00;;;25.13;62.42
54850;BME280;47660;51.334;12.396;2023-05-21T05:50:42;100311.53;;;24.45;65.37
54850;BME280;47660;51.334;12.396;2023-05-21T05:53:09;100310.97;;;25.45;63.67
54850;BME280;47660;51.334;12.396;2023-05-21T05:55:37;100310.97;;;25.01;63.68
54850;BME280;47660;51.334;12.396;2023-05-21T05:58:03;100304.75;;;25.36;63.01
54850;BME280;47660;51.334;12.396;2023-05-21T06:00:28;100302.00;;;25.29;61.86
54850;BME280;47660;51.334;12.396;2023-05-21T06:02:53;100309.75;;;25.11;62.70
54850;BME280;47660;51.334;12.396;2023-05-21T06:05:19;100305.19;;;25.61;61.58
54850;BME280;47660;51.334;12.396;2023-05-21T06:07:44;100305.66;;;25.65;60.79
54850;BME280;47660;51.334;12.396;2023-05-21T06:10:12;100303.31;;;26.19;59.47
54850;BME280;47660;51.334;12.396;2023-05-21T06:12:37;100310.75;;;25.46;61.07
54850;BME280;47660;51.334;12.396;2023-05-21T06:15:06;100301.50;;;25.69;61.41
54850;BME280;47660;51.334;12.396;2023-05-21T06:17:31;100309.50;;;25.05;63.09
54850;BME280;47660;51.334;12.396;2023-05-21T06:19:57;100304.22;;;26.39;58.60
54850;BME280;47660;51.334;12.396;2023-05-21T06:22:23;100309.69;;;25.69;60.53
54850;BME280;47660;51.334;12.396;2023-05-21T06:24:49;100304.06;;;25.77;61.08
54850;BME280;47660;51.334;12.396;2023-05-21T06:27:14;100308.28;;;26.57;58.63
54850;BME280;47660;51.334;12.396;2023-05-21T06:29:40;100305.66;;;26.00;60.70
54850;BME280;47660;51.334;12.396;2023-05-21T06:32:07;100308.28;;;26.57;59.79
54850;BME280;47660;51.334;12.396;2023-05-21T06:34:35;100311.88;;;26.71;58.00
54850;BME280;47660;51.334;12.396;2023-05-21T06:37:00;100315.09;;;26.88;57.56
54850;BME280;47660;51.334;12.396;2023-05-21T06:39:26;100318.44;;;26.83;57.20
54850;BME280;47660;51.334;12.396;2023-05-21T06:41:51;100317.03;;;26.52;58.37
54850;BME280;47660;51.334;12.396;2023-05-21T06:44:20;100311.69;;;26.73;57.74
54850;BME280;47660;51.334;12.396;2023-05-21T06:46:46;100316.91;;;26.19;59.81
54850;BME280;47660;51.334;12.396;2023-05-21T06:49:13;100309.63;;;28.02;55.51
54850;BME280;47660;51.334;12.396;2023-05-21T06:51:39;100318.31;;;27.86;55.30
54850;BME280;47660;51.334;12.396;2023-05-21T06:54:07;100316.19;;;27.27;56.21
54850;BME280;47660;51.334;12.396;2023-05-21T06:56:35;100317.91;;;27.62;55.00
54850;BME280;47660;51.334;12.396;2023-05-21T06:59:01;100312.19;;;27.77;55.22
54850;BME280;47660;51.334;12.396;2023-05-21T07:01:26;100308.66;;;27.50;55.81
54850;BME280;47660;51.334;12.396;2023-05-21T07:03:51;100314.72;;;27.05;57.09
54850;BME280;47660;51.334;12.396;2023-05-21T07:06:18;100311.34;;;27.97;55.59
54850;BME280;47660;51.334;12.396;2023-05-21T07:08:43;100314.47;;;28.00;55.02
54850;BME280;47660;51.334;12.396;2023-05-21T07:11:09;100317.22;;;27.94;55.41
54850;BME280;47660;51.334;12.396;2023-05-21T07:13:35;100310.94;;;28.98;52.52
54850;BME280;47660;51.334;12.396;2023-05-21T07:16:00;100313.81;;;29.10;52.01
54850;BME280;47660;51.334;12.396;2023-05-21T07:18:26;100313.84;;;28.64;52.93
54850;BME280;47660;51.334;12.396;2023-05-21T07:20:51;100305.75;;;29.15;51.73
54850;BME280;47660;51.334;12.396;2023-05-21T07:23:17;100308.94;;;29.44;51.89
54850;BME280;47660;51.334;12.396;2023-05-21T07:25:42;100302.06;;;29.60;50.99
54850;BME280;47660;51.334;12.396;2023-05-21T07:28:08;100302.44;;;29.63;50.85
54850;BME280;47660;51.334;12.396;2023-05-21T07:30:35;100296.53;;;29.41;51.32
54850;BME280;47660;51.334;12.396;2023-05-21T07:33:01;100301.09;;;29.47;50.78
54850;BME280;47660;51.334;12.396;2023-05-21T07:35:26;100294.03;;;30.39;49.19
54850;BME280;47660;51.334;12.396;2023-05-21T07:37:52;100297.47;;;30.16;49.09
54850;BME280;47660;51.334;12.396;2023-05-21T07:40:17;100295.13;;;30.01;49.98
54850;BME280;47660;51.334;12.396;2023-05-21T07:42:42;100294.91;;;31.01;47.43
54850;BME280;47660;51.334;12.396;2023-05-21T07:45:08;100296.88;;;31.24;47.45
54850;BME280;47660;51.334;12.396;2023-05-21T07:47:33;100295.91;;;30.88;47.92
54850;BME280;47660;51.334;12.396;2023-05-21T07:49:59;100300.34;;;30.40;48.91
54850;BME280;47660;51.334;12.396;2023-05-21T07:52:24;100297.63;;;30.21;49.07
54850;BME280;47660;51.334;12.396;2023-05-21T07:54:52;100297.38;;;30.60;49.08
54850;BME280;47660;51.334;12.396;2023-05-21T07:57:17;100291.28;;;32.03;45.39
54850;BME280;47660;51.334;12.396;2023-05-21T07:59:45;100290.31;;;31.37;46.43
54850;BME280;47660;51.334;12.396;2023-05-21T08:02:11;100287.66;;;31.19;47.19
54850;BME280;47660;51.334;12.396;2023-05-21T08:04:36;100278.34;;;32.03;44.39
54850;BME280;47660;51.334;12.396;2023-05-21T08:07:02;100281.97;;;32.44;43.29
54850;BME280;47660;51.334;12.396;2023-05-21T08:09:28;100283.69;;;32.10;43.98
54850;BME280;47660;51.334;12.396;2023-05-21T08:11:53;100273.13;;;31.30;45.31
54850;BME280;47660;51.334;12.396;2023-05-21T08:14:19;100287.31;;;31.39;45.51
54850;BME280;47660;51.334;12.396;2023-05-21T08:16:45;100284.16;;;32.30;43.86
54850;BME280;47660;51.334;12.396;2023-05-21T08:19:10;100284.31;;;31.17;45.19
54850;BME280;47660;51.334;12.396;2023-05-21T08:21:36;100277.69;;;30.14;48.22
54850;BME280;47660;51.334;12.396;2023-05-21T08:24:01;100283.81;;;32.27;43.50
54850;BME280;47660;51.334;12.396;2023-05-21T08:26:27;100278.31;;;32.85;42.35
54850;BME280;47660;51.334;12.396;2023-05-21T08:28:52;100282.91;;;31.26;44.72
54850;BME280;47660;51.334;12.396;2023-05-21T08:31:18;100275.25;;;31.88;44.50
54850;BME280;47660;51.334;12.396;2023-05-21T08:33:50;100280.09;;;33.08;42.07
54850;BME280;47660;51.334;12.396;2023-05-21T08:36:16;100282.44;;;31.53;44.46
54850;BME280;47660;51.334;12.396;2023-05-21T08:38:42;100281.47;;;31.59;44.91
54850;BME280;47660;51.334;12.396;2023-05-21T08:41:13;100280.44;;;33.12;41.97
54850;BME280;47660;51.334;12.396;2023-05-21T08:43:40;100276.34;;;31.51;43.90
54850;BME280;47660;51.334;12.396;2023-05-21T08:46:10;100281.06;;;30.65;45.58
54850;BME280;47660;51.334;12.396;2023-05-21T08:48:36;100269.78;;;31.52;44.65
54850;BME280;47660;51.334;12.396;2023-05-21T08:51:04;100281.09;;;31.32;44.09
54850;BME280;47660;51.334;12.396;2023-05-21T08:53:34;100276.66;;;32.84;41.43
54850;BME280;47660;51.334;12.396;2023-05-21T08:56:00;100273.81;;;32.50;42.77
54850;BME280;47660;51.334;12.396;2023-05-21T08:58:25;100268.97;;;32.16;42.81
54850;BME280;47660;51.334;12.396;2023-05-21T09:00:51;100262.03;;;31.49;44.84
54850;BME280;47660;51.334;12.396;2023-05-21T09:03:16;100268.72;;;31.53;44.28
54850;BME280;47660;51.334;12.396;2023-05-21T09:05:43;100262.06;;;33.69;40.53
54850;BME280;47660;51.334;12.396;2023-05-21T09:08:25;100265.34;;;32.68;42.47
54850;BME280;47660;51.334;12.396;2023-05-21T09:10:54;100264.59;;;33.53;40.39
54850;BME280;47660;51.334;12.396;2023-05-21T09:13:20;100276.59;;;31.85;43.25
54850;BME280;47660;51.334;12.396;2023-05-21T09:15:46;100276.09;;;32.00;43.73
54850;BME280;47660;51.334;12.396;2023-05-21T09:18:15;100273.75;;;31.02;44.65
54850;BME280;47660;51.334;12.396;2023-05-21T09:20:44;100275.00;;;32.01;43.10
54850;BME280;47660;51.334;12.396;2023-05-21T09:23:10;100273.19;;;32.77;42.24
54850;BME280;47660;51.334;12.396;2023-05-21T09:25:44;100276.25;;;33.26;41.67
54850;BME280;47660;51.334;12.396;2023-05-21T09:28:15;100274.03;;;32.77;42.82
54850;BME280;47660;51.334;12.396;2023-05-21T09:30:47;100268.91;;;33.88;40.94
54850;BME280;47660;51.334;12.396;2023-05-21T09:33:25;100260.16;;;34.14;40.13
54850;BME280;47660;51.334;12.396;2023-05-21T09:35:58;100266.06;;;34.00;40.01
54850;BME280;47660;51.334;12.396;2023-05-21T09:38:24;100264.34;;;34.16;39.93
54850;BME280;47660;51.334;12.396;2023-05-21T09:40:50;100261.19;;;32.83;41.73
54850;BME280;47660;51.334;12.396;2023-05-21T09:43:21;100265.75;;;33.23;41.17
54850;BME280;47660;51.334;12.396;2023-05-21T09:45:54;100251.28;;;34.89;37.99
54850;BME280;47660;51.334;12.396;2023-05-21T09:48:37;100260.38;;;32.82;41.81
54850;BME280;47660;51.334;12.396;2023-05-21T09:51:14;100253.97;;;33.84;40.48
54850;BME280;47660;51.334;12.396;2023-05-21T09:53:43;100255.81;;;33.96;39.74
54850;BME280;47660;51.334;12.396;2023-05-21T09:56:08;100261.44;;;34.28;38.71
54850;BME280;47660;51.334;12.396;2023-05-21T09:58:34;100250.97;;;33.63;39.11
54850;BME280;47660;51.334;12.396;2023-05-21T10:01:02;100257.94;;;32.28;41.39
54850;BME280;47660;51.334;12.396;2023-05-21T10:03:28;100250.44;;;32.81;41.34
54850;BME280;47660;51.334;12.396;2023-05-21T10:05:58;100243.56;;;32.67;41.79
54850;BME280;47660;51.334;12.396;2023-05-21T10:08:26;100238.03;;;35.18;37.34
54850;BME280;47660;51.334;12.396;2023-05-21T10:11:00;100241.59;;;34.54;38.91
54850;BME280;47660;51.334;12.396;2023-05-21T10:13:26;100240.59;;;33.54;38.71
54850;BME280;47660;51.334;12.396;2023-05-21T10:15:58;100235.66;;;35.37;36.02
54850;BME280;47660;51.334;12.396;2023-05-21T10:18:26;100234.91;;;34.77;37.05
54850;BME280;47660;51.334;12.396;2023-05-21T10:20:55;100236.59;;;33.27;40.47
54850;BME280;47660;51.334;12.396;2023-05-21T10:23:23;100243.06;;;32.99;40.92
54850;BME280;47660;51.334;12.396;2023-05-21T10:25:50;100236.81;;;33.03;40.92
54850;BME280;47660;51.334;12.396;2023-05-21T10:28:16;100230.84;;;34.07;38.74
54850;BME280;47660;51.334;12.396;2023-05-21T10:30:47;100227.94;;;33.18;39.03
54850;BME280;47660;51.334;12.396;2023-05-21T10:33:15;100232.78;;;32.94;39.74
54850;BME280;47660;51.334;12.396;2023-05-21T10:35:41;100221.78;;;34.34;36.94
54850;BME280;47660;51.334;12.396;2023-05-21T10:38:08;100210.75;;;32.94;38.70
54850;BME280;47660;51.334;12.396;2023-05-21T10:40:34;100219.66;;;33.53;38.17
54850;BME280;47660;51.334;12.396;2023-05-21T10:46:11;100209.63;;;33.63;38.76
54850;BME280;47660;51.334;12.396;2023-05-21T10:49:33;100212.38;;;33.86;37.48
54850;BME280;47660;51.334;12.396;2023-05-21T10:54:50;100204.75;;;34.15;36.10
54850;BME280;47660;51.334;12.396;2023-05-21T11:00:06;100206.47;;;34.21;34.92
54850;BME280;47660;51.334;12.396;2023-05-21T11:02:33;100202.25;;;34.96;33.85
54850;BME280;47660;51.334;12.396;2023-05-21T11:05:01;100207.69;;;34.58;33.98
54850;BME280;47660;51.334;12.396;2023-05-21T11:13:12;100204.06;;;34.85;34.12
54850;BME280;47660;51.334;12.396;2023-05-21T11:21:14;100202.81;;;34.98;33.97
54850;BME280;47660;51.334;12.396;2023-05-21T11:26:22;100195.84;;;35.33;32.87
54850;BME280;47660;51.334;12.396;2023-05-21T11:31:29;100195.16;;;35.10;33.12
54850;BME280;47660;51.334;12.396;2023-05-21T11:34:21;100199.03;;;36.11;31.77
54850;BME280;47660;51.334;12.396;2023-05-21T11:39:41;100198.00;;;33.61;34.94
54850;BME280;47660;51.334;12.396;2023-05-21T11:42:09;100185.19;;;34.17;33.60
54850;BME280;47660;51.334;12.396;2023-05-21T11:44:43;100186.72;;;35.81;32.52
54850;BME280;47660;51.334;12.396;2023-05-21T11:47:13;100179.28;;;35.97;31.89
54850;BME280;47660;51.334;12.396;2023-05-21T11:49:39;100186.19;;;35.31;32.47
54850;BME280;47660;51.334;12.396;2023-05-21T11:52:06;100185.41;;;34.38;33.71
54850;BME280;47660;51.334;12.396;2023-05-21T11:54:38;100186.09;;;34.83;33.27
54850;BME280;47660;51.334;12.396;2023-05-21T11:57:07;100189.81;;;35.42;32.33
54850;BME280;47660;51.334;12.396;2023-05-21T11:59:33;100189.50;;;34.07;34.08
54850;BME280;47660;51.334;12.396;2023-05-21T12:02:00;100189.50;;;34.95;32.83
54850;BME280;47660;51.334;12.396;2023-05-21T12:04:30;100187.19;;;35.57;31.99
54850;BME280;47660;51.334;12.396;2023-05-21T12:06:58;100192.16;;;35.60;32.37
54850;BME280;47660;51.334;12.396;2023-05-21T12:09:25;100193.84;;;34.86;32.65
54850;BME280;47660;51.334;12.396;2023-05-21T12:11:52;100184.56;;;34.97;32.58
54850;BME280;47660;51.334;12.396;2023-05-21T12:14:17;100172.09;;;35.37;31.50
54850;BME280;47660;51.334;12.396;2023-05-21T12:16:43;100185.59;;;35.77;30.88
54850;BME280;47660;51.334;12.396;2023-05-21T12:19:08;100167.84;;;35.14;32.30
54850;BME280;47660;51.334;12.396;2023-05-21T12:21:34;100178.06;;;35.62;32.48
54850;BME280;47660;51.334;12.396;2023-05-21T12:24:02;100182.19;;;35.54;32.56
54850;BME280;47660;51.334;12.396;2023-05-21T12:26:28;100178.53;;;35.48;32.31
54850;BME280;47660;51.334;12.396;2023-05-21T12:28:57;100179.41;;;36.28;31.62
54850;BME280;47660;51.334;12.396;2023-05-21T12:31:22;100172.63;;;35.82;31.47
54850;BME280;47660;51.334;12.396;2023-05-21T12:33:50;100178.00;;;36.20;31.50
54850;BME280;47660;51.334;12.396;2023-05-21T12:36:30;100173.56;;;36.24;30.71
54850;BME280;47660;51.334;12.396;2023-05-21T12:38:58;100163.09;;;36.83;29.33
54850;BME280;47660;51.334;12.396;2023-05-21T12:41:24;100172.22;;;36.42;30.28
54850;BME280;47660;51.334;12.396;2023-05-21T12:43:50;100168.50;;;34.94;32.25
54850;BME280;47660;51.334;12.396;2023-05-21T12:46:16;100167.47;;;35.00;32.52
54850;BME280;47660;51.334;12.396;2023-05-21T12:48:52;100162.47;;;37.38;29.79
54850;BME280;47660;51.334;12.396;2023-05-21T12:51:19;100163.38;;;37.99;28.60
54850;BME280;47660;51.334;12.396;2023-05-21T12:53:45;100171.16;;;36.80;29.99
54850;BME280;47660;51.334;12.396;2023-05-21T12:56:12;100173.31;;;36.41;29.99
54850;BME280;47660;51.334;12.396;2023-05-21T12:58:39;100157.47;;;38.06;28.41
54850;BME280;47660;51.334;12.396;2023-05-21T13:01:10;100160.91;;;36.65;29.23
54850;BME280;47660;51.334;12.396;2023-05-21T13:03:42;100160.06;;;36.64;29.26
54850;BME280;47660;51.334;12.396;2023-05-21T13:06:08;100159.50;;;36.52;29.34
54850;BME280;47660;51.334;12.396;2023-05-21T13:08:33;100155.91;;;36.62;28.85
54850;BME280;47660;51.334;12.396;2023-05-21T13:11:00;100153.97;;;39.77;26.50